Погода Энсинитасна неделю

Калифорния, США

01 - 07 сентября
  • 01сентября
    Сегодня
    +17°
    +24°
    Ясно и безоблачно
    ВремяПогодаТемператураВлажностьДавлениеВетер, м/сВероятность осадков
    02:00Ясно и безоблачно+18°C85 %759 мм1.6 м/с2 %
    05:00Практически безоблачно+20°C86 %758 мм1.4 м/с2 %
    08:00Ясно и безоблачно+20°C82 %759 мм1.2 м/с2 %
    11:00Ясно и безоблачно+24°C70 %760 мм2.9 м/с2 %
    14:00Ясно и безоблачно+24°C67 %759 мм4.9 м/с2 %
    17:00Ясно и безоблачно+23°C70 %758 мм4.7 м/с2 %
    20:00Ясно и безоблачно+21°C73 %758 мм3.1 м/с2 %
    23:00Ясно и безоблачно+18°C76 %760 мм2.1 м/с2 %
  • 02сентября
    Среда
    +16°
    +25°
    Ясно и безоблачно
    ВремяПогодаТемператураВлажностьДавлениеВетер, м/сВероятность осадков
    02:00Ясно и безоблачно+18°C82 %760 мм1.6 м/с2 %
    05:00Ясно и безоблачно+18°C86 %759 мм1.1 м/с2 %
    08:00Практически безоблачно+20°C87 %760 мм0.6 м/с2 %
    11:00Ясно и безоблачно+24°C66 %760 мм1.9 м/с2 %
    14:00Ясно и безоблачно+24°C68 %759 мм4.6 м/с2 %
    17:00Ясно и безоблачно+24°C66 %758 мм3.8 м/с2 %
    20:00Ясно и безоблачно+21°C76 %758 мм2.1 м/с2 %
    23:00Ясно и безоблачно+19°C77 %759 мм0.4 м/с2 %
  • 03сентября
    Четверг
    +16°
    +24°
    Ясно и безоблачно
    ВремяПогодаТемператураВлажностьДавлениеВетер, м/сВероятность осадков
    02:00Ясно и безоблачно+17°C85 %759 мм0.9 м/с2 %
    05:00Небольшая облачность+17°C93 %758 мм1.1 м/с2 %
    08:00Практически безоблачно+19°C86 %759 мм1.6 м/с2 %
    11:00Ясно и безоблачно+23°C69 %759 мм1.8 м/с2 %
    14:00Ясно и безоблачно+24°C70 %758 мм4.2 м/с2 %
    17:00Ясно и безоблачно+23°C79 %757 мм4.4 м/с2 %
    20:00Небольшая облачность+20°C83 %757 мм2.5 м/с2 %
    23:00Небольшая облачность+19°C83 %757 мм0.4 м/с2 %
  • 04сентября
    Пятница
    +16°
    +25°
    Ясно и безоблачно
    ВремяПогодаТемператураВлажностьДавлениеВетер, м/сВероятность осадков
    02:00Ясно и безоблачно+18°C84 %757 мм1.0 м/с2 %
    05:00Ясно и безоблачно+17°C89 %757 мм1.1 м/с2 %
    08:00Ясно и безоблачно+19°C91 %758 мм1.3 м/с2 %
    11:00Ясно и безоблачно+24°C67 %758 мм1.9 м/с2 %
    14:00Ясно и безоблачно+24°C64 %757 мм3.8 м/с2 %
    17:00Ясно и безоблачно+23°C68 %757 мм3.6 м/с2 %
    20:00Практически безоблачно+20°C77 %757 мм1.6 м/с2 %
    23:00Ясно и безоблачно+19°C84 %758 мм0.2 м/с2 %
  • 05сентября
    Суббота
    +21°
    +26°
    Небольшая облачность
    ВремяПогодаТемператураВлажностьДавлениеВетер, м/сВероятность осадков
    02:00Ясно и безоблачно+17°C91 %757 мм1.3 м/с11 %
    05:00Ясно и безоблачно+18°C89 %757 мм1.0 м/с11 %
    08:00Небольшая облачность+21°C69 %758 мм1.1 м/с22 %
    11:00Облачно с прояснениями+26°C62 %758 мм2.7 м/с23 %
    14:00Небольшая облачность+26°C60 %757 мм3.7 м/с27 %
    17:00Ясно и безоблачно+24°C67 %757 мм3.2 м/с23 %
    20:00Облачно с прояснениями+23°C71 %757 мм1.4 м/с16 %
    23:00Облачно с прояснениями+22°C79 %758 мм1.4 м/с19 %
  • 06сентября
    Воскресенье
    +19°
    +27°
    Облачно с прояснениями
    ВремяПогодаТемператураВлажностьДавлениеВетер, м/сВероятность осадков
    05:00Небольшая облачность+21°C87 %757 мм1.0 м/с15 %
    11:00Облачно с прояснениями+26°C69 %758 мм2.2 м/с20 %
    17:00Практически безоблачно+26°C58 %756 мм2.8 м/с17 %
    23:00Ясно и безоблачно+23°C75 %757 мм2.5 м/с19 %
  • 07сентября
    Понедельник
    +18°
    +27°
    Ясно и безоблачно
    ВремяПогодаТемператураВлажностьДавлениеВетер, м/сВероятность осадков
    05:00Ясно и безоблачно+20°C82 %757 мм1.8 м/с19 %
    11:00Ясно и безоблачно+26°C65 %758 мм3.0 м/с21 %
    17:00Ясно и безоблачно+25°C61 %756 мм4.6 м/с22 %
    23:00Ясно и безоблачно+21°C83 %757 мм1.8 м/с12 %
Мы используем cookies
Соглашаюсь